createdAt,value
2023-03-08T00:02:17.828Z,13.02
2023-03-08T00:04:45.493Z,12.30
2023-03-08T00:07:13.219Z,12.40
2023-03-08T00:09:42.220Z,12.00
2023-03-08T00:12:10.633Z,12.88
2023-03-08T00:14:38.568Z,12.93
2023-03-08T00:17:06.976Z,12.80
2023-03-08T00:19:34.648Z,12.45
2023-03-08T00:22:04.735Z,11.80
2023-03-08T00:24:32.592Z,12.18
2023-03-08T00:27:01.849Z,12.23
2023-03-08T00:29:29.538Z,11.55
2023-03-08T00:31:57.237Z,11.65
2023-03-08T00:34:24.860Z,11.93
2023-03-08T00:36:52.505Z,12.15
2023-03-08T00:39:20.319Z,11.30
2023-03-08T00:41:47.965Z,11.75
2023-03-08T00:44:16.974Z,12.05
2023-03-08T00:46:46.846Z,11.63
2023-03-08T00:49:17.218Z,12.32
2023-03-08T00:51:44.820Z,10.77
2023-03-08T00:54:12.449Z,11.32
2023-03-08T00:56:40.118Z,11.15
2023-03-08T00:59:09.543Z,11.82
2023-03-08T01:01:38.578Z,11.40
2023-03-08T01:04:06.479Z,11.07
2023-03-08T01:06:34.146Z,10.30
2023-03-08T01:09:01.926Z,10.73
2023-03-08T01:11:29.614Z,11.55
2023-03-08T01:13:57.386Z,10.85
2023-03-08T01:16:27.013Z,12.10
2023-03-08T01:18:56.961Z,11.13
2023-03-08T01:21:25.694Z,11.38
2023-03-08T01:23:54.336Z,11.25
2023-03-08T01:26:24.550Z,10.18
2023-03-08T01:28:53.151Z,10.25
2023-03-08T01:31:22.655Z,10.18
2023-03-08T01:33:51.060Z,10.50
2023-03-08T01:36:22.337Z,10.68
2023-03-08T01:38:50.458Z,11.65
2023-03-08T01:41:20.061Z,10.40
2023-03-08T01:43:47.990Z,10.88
2023-03-08T01:46:26.142Z,11.10
2023-03-08T01:49:14.573Z,10.52
2023-03-08T01:51:47.477Z,11.25
2023-03-08T01:54:18.488Z,11.75
2023-03-08T01:56:51.828Z,10.95
2023-03-08T01:59:23.505Z,11.05
2023-03-08T02:01:53.162Z,11.30
2023-03-08T02:04:21.569Z,10.90
2023-03-08T02:06:50.627Z,11.00
2023-03-08T02:09:22.036Z,11.20
2023-03-08T02:11:50.547Z,11.35
2023-03-08T02:14:18.222Z,10.63
2023-03-08T02:16:45.981Z,12.63
2023-03-08T02:19:18.255Z,12.10
2023-03-08T02:21:45.901Z,11.45
2023-03-08T02:24:23.319Z,12.27
2023-03-08T02:26:53.640Z,12.43
2023-03-08T02:29:21.423Z,11.82
2023-03-08T02:31:49.063Z,11.23
2023-03-08T02:34:16.715Z,12.63
2023-03-08T02:36:44.876Z,11.57
2023-03-08T02:39:15.479Z,12.63
2023-03-08T02:41:44.490Z,11.65
2023-03-08T02:44:12.184Z,12.75
2023-03-08T02:46:42.276Z,12.05
2023-03-08T02:49:09.948Z,11.85
2023-03-08T02:51:39.700Z,11.80
2023-03-08T02:54:10.967Z,12.52
2023-03-08T02:56:38.671Z,11.68
2023-03-08T02:59:08.190Z,10.93
2023-03-08T03:01:36.452Z,12.13
2023-03-08T03:04:07.847Z,11.88
2023-03-08T03:06:35.522Z,11.70
2023-03-08T03:09:07.239Z,11.80
2023-03-08T03:11:34.879Z,12.02
2023-03-08T03:14:03.305Z,11.20
2023-03-08T03:16:35.049Z,12.05
2023-03-08T03:19:02.662Z,11.55
2023-03-08T03:21:30.306Z,12.98
2023-03-08T03:23:58.052Z,13.20
2023-03-08T03:26:26.206Z,12.18
2023-03-08T03:28:57.324Z,11.73
2023-03-08T03:31:25.620Z,11.60
2023-03-08T03:33:54.709Z,12.10
2023-03-08T03:36:23.090Z,12.00
2023-03-08T03:38:51.325Z,11.55
2023-03-08T03:41:22.090Z,10.70
2023-03-08T03:43:50.567Z,11.27
2023-03-08T03:46:21.591Z,11.60
2023-03-08T03:48:49.493Z,13.02
2023-03-08T03:51:20.419Z,12.02
2023-03-08T03:53:51.756Z,12.63
2023-03-08T03:56:21.577Z,11.90
2023-03-08T03:58:50.289Z,11.88
2023-03-08T04:01:21.137Z,11.18
2023-03-08T04:03:49.217Z,11.63
2023-03-08T04:06:20.655Z,11.70
2023-03-08T04:08:52.550Z,12.13
2023-03-08T04:11:22.806Z,12.25
2023-03-08T04:13:50.850Z,11.82
2023-03-08T04:16:20.131Z,13.23
2023-03-08T04:18:48.287Z,12.95
2023-03-08T04:21:16.095Z,12.38
2023-03-08T04:23:45.041Z,12.45
2023-03-08T04:26:13.610Z,13.52
2023-03-08T04:28:41.554Z,12.60
2023-03-08T04:31:14.143Z,12.88
2023-03-08T04:33:48.243Z,12.32
2023-03-08T04:36:16.759Z,12.82
2023-03-08T04:38:47.087Z,12.75
2023-03-08T04:41:15.644Z,12.05
2023-03-08T04:43:46.768Z,12.32
2023-03-08T04:46:15.277Z,11.40
2023-03-08T04:48:43.099Z,11.40
2023-03-08T04:51:14.029Z,11.75
2023-03-08T04:53:44.566Z,11.75
2023-03-08T04:56:15.322Z,12.35
2023-03-08T04:58:44.712Z,11.45
2023-03-08T05:01:14.157Z,11.55
2023-03-08T05:03:42.525Z,12.50
2023-03-08T05:06:10.842Z,11.98
2023-03-08T05:08:38.550Z,12.07
2023-03-08T05:11:06.918Z,13.05
2023-03-08T05:13:40.035Z,13.02
2023-03-08T05:16:08.904Z,12.05
2023-03-08T05:18:37.005Z,11.98
2023-03-08T05:21:07.501Z,13.32
2023-03-08T05:23:35.832Z,12.48
2023-03-08T05:26:05.521Z,11.27
2023-03-08T05:28:35.117Z,12.25
2023-03-08T05:31:06.325Z,12.30
2023-03-08T05:33:35.074Z,12.77
2023-03-08T05:36:03.494Z,13.60
2023-03-08T05:38:31.861Z,14.48
2023-03-08T05:41:01.929Z,14.20
2023-03-08T05:43:29.669Z,14.68
2023-03-08T05:45:58.414Z,11.38
2023-03-08T05:48:27.557Z,11.35
2023-03-08T05:50:55.554Z,11.68
2023-03-08T05:53:23.605Z,11.82
2023-03-08T05:55:52.859Z,12.13
2023-03-08T05:58:20.474Z,10.82
2023-03-08T06:00:48.121Z,11.88
2023-03-08T06:03:16.101Z,11.77
2023-03-08T06:05:45.117Z,11.27
2023-03-08T06:08:12.739Z,12.07
2023-03-08T06:10:40.359Z,12.30
2023-03-08T06:13:07.976Z,12.20
2023-03-08T06:15:35.628Z,12.43
2023-03-08T06:18:03.309Z,12.25
2023-03-08T06:20:33.211Z,13.30
2023-03-08T06:23:02.218Z,14.95
2023-03-08T06:25:29.927Z,15.23
2023-03-08T06:27:57.585Z,17.33
2023-03-08T06:30:25.348Z,16.00
2023-03-08T06:32:53.035Z,16.05
2023-03-08T06:35:22.334Z,16.02
2023-03-08T06:37:50.025Z,16.67
2023-03-08T06:40:20.803Z,15.18
2023-03-08T06:42:48.485Z,14.15
2023-03-08T06:45:18.867Z,15.13
2023-03-08T06:47:48.185Z,14.77
2023-03-08T06:50:16.179Z,15.18
2023-03-08T06:52:43.845Z,14.48
2023-03-08T06:55:12.680Z,15.13
2023-03-08T06:57:41.685Z,14.93
2023-03-08T07:00:12.286Z,14.50
2023-03-08T07:02:39.940Z,14.32
2023-03-08T07:05:08.219Z,15.13
2023-03-08T07:07:36.765Z,16.25
2023-03-08T07:10:05.278Z,15.68
2023-03-08T07:12:33.162Z,15.63
2023-03-08T07:15:02.174Z,15.27
2023-03-08T07:17:29.847Z,15.75
2023-03-08T07:19:57.510Z,14.75
2023-03-08T07:22:25.269Z,15.70
2023-03-08T07:24:52.948Z,16.73
2023-03-08T07:27:20.885Z,16.38
2023-03-08T07:29:48.555Z,15.80
2023-03-08T07:32:17.931Z,16.02
2023-03-08T07:34:46.138Z,15.63
2023-03-08T07:37:14.501Z,15.90
2023-03-08T07:39:42.568Z,16.98
2023-03-08T07:42:11.732Z,16.25
2023-03-08T07:44:39.359Z,16.52
2023-03-08T07:47:09.113Z,16.05
2023-03-08T07:49:38.116Z,15.07
2023-03-08T07:52:06.372Z,16.77
2023-03-08T07:54:34.204Z,15.65
2023-03-08T07:57:02.077Z,15.55
2023-03-08T07:59:30.191Z,15.25
2023-03-08T08:01:57.929Z,16.00
2023-03-08T08:04:25.663Z,15.50
2023-03-08T08:06:54.729Z,15.02
2023-03-08T08:09:22.409Z,15.95
2023-03-08T08:11:50.105Z,15.25
2023-03-08T08:14:17.757Z,15.77
2023-03-08T08:16:45.568Z,15.05
2023-03-08T08:19:14.635Z,14.77
2023-03-08T08:21:43.502Z,15.45
2023-03-08T08:24:12.601Z,15.15
2023-03-08T08:26:40.510Z,15.68
2023-03-08T08:29:08.856Z,15.13
2023-03-08T08:31:36.680Z,15.10
2023-03-08T08:34:04.490Z,16.23
2023-03-08T08:36:32.204Z,15.05
2023-03-08T08:38:59.925Z,14.93
2023-03-08T08:41:29.678Z,14.73
2023-03-08T08:43:59.439Z,14.68
2023-03-08T08:46:28.546Z,15.02
2023-03-08T08:48:56.942Z,14.52
2023-03-08T08:51:24.770Z,15.02
2023-03-08T08:53:52.614Z,14.45
2023-03-08T08:56:27.536Z,15.38
2023-03-08T09:01:27.011Z,15.60
2023-03-08T09:03:55.090Z,15.30
2023-03-08T09:06:24.067Z,14.63
2023-03-08T09:08:51.836Z,15.27
2023-03-08T09:11:19.806Z,14.57
2023-03-08T09:13:47.569Z,15.07
2023-03-08T09:16:21.811Z,14.35
2023-03-08T09:18:49.986Z,14.60
2023-03-08T09:21:18.148Z,15.52
2023-03-08T09:23:46.508Z,16.23
2023-03-08T09:26:14.480Z,15.95
2023-03-08T09:28:42.163Z,16.58
2023-03-08T09:31:12.926Z,16.90
2023-03-08T09:33:43.797Z,15.27
2023-03-08T09:36:11.915Z,15.90
2023-03-08T09:38:39.705Z,16.85
2023-03-08T09:41:31.998Z,16.63
2023-03-08T09:44:13.113Z,16.75
2023-03-08T09:46:47.172Z,16.95
2023-03-08T09:49:20.577Z,16.98
2023-03-08T09:51:54.003Z,15.95
2023-03-08T09:54:25.713Z,16.27
2023-03-08T09:56:56.296Z,15.68
2023-03-08T09:59:32.693Z,15.75
2023-03-08T10:02:05.690Z,16.40
2023-03-08T10:04:47.270Z,16.27
2023-03-08T10:07:26.017Z,16.60
2023-03-08T10:10:13.338Z,16.15
2023-03-08T10:12:56.919Z,15.70
2023-03-08T10:15:27.986Z,16.48
2023-03-08T10:18:00.593Z,14.75
2023-03-08T10:20:32.662Z,16.02
2023-03-08T10:23:02.638Z,16.45
2023-03-08T10:25:34.016Z,16.00
2023-03-08T10:28:03.084Z,14.23
2023-03-08T10:30:35.190Z,15.35
2023-03-08T10:33:08.539Z,16.10
2023-03-08T10:35:39.583Z,14.80
2023-03-08T10:38:17.243Z,14.35
2023-03-08T10:40:45.122Z,15.00
2023-03-08T10:43:20.560Z,16.98
2023-03-08T10:45:59.870Z,15.68
2023-03-08T10:48:27.566Z,17.25
2023-03-08T10:51:05.176Z,15.88
2023-03-08T10:53:33.689Z,15.88
2023-03-08T10:56:02.666Z,15.27
2023-03-08T10:58:35.056Z,16.15
2023-03-08T11:01:05.560Z,15.68
2023-03-08T11:03:33.885Z,16.20
2023-03-08T11:06:05.320Z,16.65
2023-03-08T11:08:38.933Z,16.90
2023-03-08T11:11:10.354Z,12.43
2023-03-08T11:13:41.767Z,15.48
2023-03-08T11:16:54.675Z,14.15
2023-03-08T11:19:36.195Z,14.00
2023-03-08T11:22:17.954Z,15.55
2023-03-08T11:24:56.891Z,14.02
2023-03-08T11:27:36.793Z,12.13
2023-03-08T11:30:18.212Z,12.18
2023-03-08T11:33:00.950Z,10.10
2023-03-08T11:35:36.104Z,11.00
2023-03-08T11:38:12.758Z,10.77
2023-03-08T11:40:53.154Z,11.25
2023-03-08T11:43:38.364Z,12.23
2023-03-08T11:46:17.041Z,11.50
2023-03-08T11:49:17.711Z,11.80
2023-03-08T11:51:53.931Z,10.32
2023-03-08T11:54:35.608Z,10.55
2023-03-08T11:57:05.416Z,12.02
2023-03-08T11:59:36.682Z,11.73
2023-03-08T12:02:16.270Z,10.82
2023-03-08T12:04:53.032Z,11.50
2023-03-08T12:07:25.800Z,10.60
2023-03-08T12:10:00.559Z,9.38
2023-03-08T12:12:32.088Z,9.93
2023-03-08T12:15:07.621Z,9.55
2023-03-08T12:20:14.097Z,9.43
2023-03-08T12:22:47.026Z,8.23
2023-03-08T12:25:26.242Z,8.30
2023-03-08T12:28:01.033Z,7.93
2023-03-08T12:30:40.116Z,7.28
2023-03-08T12:33:12.797Z,7.03
2023-03-08T12:35:53.263Z,7.32
2023-03-08T12:38:34.168Z,6.93
2023-03-08T12:41:04.251Z,6.90
2023-03-08T12:43:34.020Z,7.35
2023-03-08T12:46:05.506Z,7.28
2023-03-08T12:48:37.641Z,6.75
2023-03-08T12:51:20.125Z,6.40
2023-03-08T12:53:59.228Z,7.47
2023-03-08T12:56:32.150Z,7.25
2023-03-08T12:59:01.877Z,7.22
2023-03-08T13:01:36.471Z,7.00
2023-03-08T13:04:05.989Z,6.13
2023-03-08T13:07:01.537Z,6.00
2023-03-08T13:09:32.460Z,5.27
2023-03-08T13:12:13.186Z,5.57
2023-03-08T13:14:43.351Z,4.65
2023-03-08T13:17:44.769Z,3.55
2023-03-08T13:20:18.511Z,2.80
2023-03-08T13:22:58.700Z,1.90
2023-03-08T13:25:49.993Z,1.58
2023-03-08T13:28:21.955Z,1.48
2023-03-08T13:30:52.669Z,1.50
2023-03-08T13:33:24.315Z,1.20
2023-03-08T13:35:56.971Z,1.10
2023-03-08T13:38:27.637Z,1.30
2023-03-08T13:40:57.507Z,1.13
2023-03-08T13:43:28.270Z,1.00
2023-03-08T13:45:58.950Z,1.33
2023-03-08T13:48:31.243Z,1.10
2023-03-08T13:51:00.463Z,1.00
2023-03-08T13:53:31.636Z,1.02
2023-03-08T13:56:02.232Z,1.00
2023-03-08T13:58:35.429Z,1.17
2023-03-08T14:01:10.448Z,0.90
2023-03-08T14:03:39.067Z,1.20
2023-03-08T14:06:18.044Z,0.88
2023-03-08T14:08:47.321Z,1.45
2023-03-08T14:11:18.476Z,1.10
2023-03-08T14:13:51.559Z,1.35
2023-03-08T14:16:29.930Z,0.98
2023-03-08T14:18:58.693Z,1.35
2023-03-08T14:21:28.555Z,1.10
2023-03-08T14:23:57.817Z,0.88
2023-03-08T14:26:32.045Z,0.70
2023-03-08T14:29:14.048Z,0.90
2023-03-08T14:31:55.473Z,1.25
2023-03-08T14:34:25.522Z,1.13
2023-03-08T14:36:58.395Z,1.15
2023-03-08T14:39:28.801Z,1.00
2023-03-08T14:41:57.302Z,1.10
2023-03-08T14:44:29.262Z,1.08
2023-03-08T14:47:09.089Z,1.10
2023-03-08T14:49:36.854Z,1.23
2023-03-08T14:52:08.611Z,1.05
2023-03-08T14:54:38.490Z,1.27
2023-03-08T14:57:18.401Z,1.17
2023-03-08T14:59:48.062Z,0.90
2023-03-08T15:02:17.635Z,1.20
2023-03-08T15:04:46.637Z,1.05
2023-03-08T15:07:20.256Z,1.05
2023-03-08T15:09:48.823Z,0.90
2023-03-08T15:12:17.745Z,1.00
2023-03-08T15:14:47.152Z,1.20
2023-03-08T15:17:16.778Z,1.30
2023-03-08T15:19:44.432Z,1.00
2023-03-08T15:22:14.511Z,1.00
2023-03-08T15:24:42.188Z,0.98
2023-03-08T15:27:14.455Z,1.08
2023-03-08T15:29:43.344Z,1.23
2023-03-08T15:32:12.524Z,1.02
2023-03-08T15:34:43.687Z,1.00
2023-03-08T15:37:15.286Z,1.35
2023-03-08T15:39:42.955Z,1.20
2023-03-08T15:42:10.650Z,1.40
2023-03-08T15:47:29.254Z,1.35
2023-03-08T15:49:56.999Z,1.50
2023-03-08T15:52:30.121Z,1.30
2023-03-08T15:54:58.365Z,1.17
2023-03-08T15:57:29.061Z,1.20
2023-03-08T15:59:56.679Z,1.30
2023-03-08T16:02:24.469Z,1.60
2023-03-08T16:04:55.813Z,1.08
2023-03-08T16:07:23.565Z,1.25
2023-03-08T16:09:51.303Z,1.10
2023-03-08T16:12:19.051Z,1.63
2023-03-08T16:14:49.087Z,1.48
2023-03-08T16:17:17.677Z,1.48
2023-03-08T16:19:45.500Z,1.20
2023-03-08T16:22:14.601Z,1.40
2023-03-08T16:24:42.310Z,1.38
2023-03-08T16:27:09.974Z,1.48
2023-03-08T16:29:37.883Z,1.55
2023-03-08T16:32:06.125Z,1.50
2023-03-08T16:34:33.961Z,1.10
2023-03-08T16:37:01.669Z,1.38
2023-03-08T16:39:30.733Z,1.35
2023-03-08T16:41:58.545Z,1.23
2023-03-08T16:44:28.318Z,1.30
2023-03-08T16:46:56.294Z,1.27
2023-03-08T16:49:28.210Z,1.50
2023-03-08T16:51:56.273Z,1.70
2023-03-08T16:54:24.293Z,1.80
2023-03-08T16:56:53.329Z,1.50
2023-03-08T16:59:21.035Z,1.48
2023-03-08T17:01:49.910Z,1.63
2023-03-08T17:04:19.385Z,1.50
2023-03-08T17:06:47.628Z,1.73
2023-03-08T17:09:15.393Z,1.52
2023-03-08T17:11:48.337Z,1.58
2023-03-08T17:14:17.628Z,1.50
2023-03-08T17:16:45.281Z,1.42
2023-03-08T17:19:14.264Z,1.52
2023-03-08T17:21:41.969Z,1.40
2023-03-08T17:24:12.794Z,1.60
2023-03-08T17:26:43.161Z,1.50
2023-03-08T17:29:11.099Z,1.40
2023-03-08T17:31:42.173Z,1.50
2023-03-08T17:34:10.134Z,1.40
2023-03-08T17:36:38.545Z,1.70
2023-03-08T17:39:06.270Z,1.27
2023-03-08T17:41:34.308Z,2.13
2023-03-08T17:44:01.993Z,2.00
2023-03-08T17:46:30.204Z,1.67
2023-03-08T17:48:59.276Z,1.80
2023-03-08T17:51:29.218Z,2.08
2023-03-08T17:53:58.182Z,2.08
2023-03-08T17:56:29.188Z,2.47
2023-03-08T17:58:58.265Z,2.60
2023-03-08T18:01:28.299Z,2.33
2023-03-08T18:03:57.651Z,2.17
2023-03-08T18:06:29.689Z,2.00
2023-03-08T18:08:57.920Z,2.22
2023-03-08T18:11:26.048Z,1.98
2023-03-08T18:13:54.084Z,1.92
2023-03-08T18:16:23.892Z,2.05
2023-03-08T18:18:51.821Z,1.90
2023-03-08T18:21:20.898Z,1.98
2023-03-08T18:23:50.660Z,2.00
2023-03-08T18:26:19.419Z,2.15
2023-03-08T18:28:47.546Z,1.75
2023-03-08T18:31:17.348Z,2.00
2023-03-08T18:33:46.133Z,1.83
2023-03-08T18:36:14.072Z,1.73
2023-03-08T18:38:42.841Z,1.77
2023-03-08T18:41:17.509Z,1.63
2023-03-08T18:43:46.769Z,1.33
2023-03-08T18:46:15.391Z,1.40
2023-03-08T18:48:46.297Z,1.13
2023-03-08T18:51:16.236Z,1.20
2023-03-08T18:53:44.273Z,1.00
2023-03-08T18:56:11.913Z,1.25
2023-03-08T18:58:41.325Z,0.88
2023-03-08T19:01:12.324Z,1.08
2023-03-08T19:03:40.125Z,1.00
2023-03-08T19:06:08.331Z,1.30
2023-03-08T19:08:36.304Z,1.00
2023-03-08T19:11:13.455Z,1.00
2023-03-08T19:13:43.429Z,0.90
2023-03-08T19:16:22.995Z,0.88
2023-03-08T19:18:53.296Z,1.25
2023-03-08T19:21:23.157Z,1.08
2023-03-08T19:23:51.170Z,2.28
2023-03-08T19:26:40.538Z,0.90
2023-03-08T19:29:12.352Z,1.08
2023-03-08T19:31:42.839Z,1.45
2023-03-08T19:34:11.567Z,0.98
2023-03-08T19:36:39.268Z,1.20
2023-03-08T19:39:08.903Z,1.63
2023-03-08T19:41:36.673Z,1.23
2023-03-08T19:44:06.990Z,1.25
2023-03-08T19:46:37.583Z,0.88
2023-03-08T19:49:13.599Z,0.80
2023-03-08T19:51:41.280Z,1.00
2023-03-08T19:54:09.538Z,0.77
2023-03-08T19:56:37.464Z,0.80
2023-03-08T19:59:07.637Z,1.10
2023-03-08T20:01:37.190Z,0.93
2023-03-08T20:04:05.836Z,0.90
2023-03-08T20:06:35.458Z,1.00
2023-03-08T20:09:04.884Z,1.10
2023-03-08T20:11:32.835Z,1.10
2023-03-08T20:14:00.866Z,1.20
2023-03-08T20:16:29.781Z,1.30
2023-03-08T20:18:59.277Z,1.08
2023-03-08T20:21:29.830Z,1.02
2023-03-08T20:23:59.497Z,1.08
2023-03-08T20:26:29.109Z,1.00
2023-03-08T20:28:57.587Z,1.23
2023-03-08T20:31:26.600Z,1.40
2023-03-08T20:33:55.680Z,1.35
2023-03-08T20:36:24.755Z,0.95
2023-03-08T20:38:52.900Z,0.80
2023-03-08T20:41:22.468Z,1.10
2023-03-08T20:43:52.277Z,1.30
2023-03-08T20:46:23.516Z,1.00
2023-03-08T20:48:52.181Z,0.90
2023-03-08T20:51:22.228Z,1.08
2023-03-08T20:53:55.501Z,1.15
2023-03-08T20:56:25.291Z,1.00
2023-03-08T20:58:54.517Z,1.05
2023-03-08T21:01:25.568Z,1.08
2023-03-08T21:03:53.354Z,1.13
2023-03-08T21:06:23.521Z,1.15
2023-03-08T21:08:55.552Z,1.02
2023-03-08T21:11:23.744Z,1.30
2023-03-08T21:13:52.767Z,1.00
2023-03-08T21:16:23.490Z,1.20
2023-03-08T21:18:51.763Z,1.50
2023-03-08T21:21:21.690Z,1.27
2023-03-08T21:23:50.192Z,1.25
2023-03-08T21:26:20.721Z,1.23
2023-03-08T21:28:48.823Z,1.45
2023-03-08T21:31:17.374Z,1.40
2023-03-08T21:33:45.084Z,1.58
2023-03-08T21:36:13.300Z,1.20
2023-03-08T21:38:41.132Z,1.33
2023-03-08T21:41:17.524Z,1.17
2023-03-08T21:43:46.626Z,1.40
2023-03-08T21:46:14.497Z,1.40
2023-03-08T21:48:42.311Z,1.38
2023-03-08T21:51:13.364Z,1.60
2023-03-08T21:53:41.618Z,1.65
2023-03-08T21:56:10.857Z,1.50
2023-03-08T21:58:39.279Z,1.67
2023-03-08T22:01:08.804Z,1.50
2023-03-08T22:03:38.085Z,1.45
2023-03-08T22:06:08.733Z,1.33
2023-03-08T22:08:36.409Z,1.60
2023-03-08T22:11:05.946Z,1.60
2023-03-08T22:13:37.165Z,1.70
2023-03-08T22:16:05.379Z,1.38
2023-03-08T22:18:34.512Z,1.52
2023-03-08T22:21:02.693Z,1.42
2023-03-08T22:23:31.954Z,2.00
2023-03-08T22:26:02.637Z,1.80
2023-03-08T22:28:30.452Z,1.63
2023-03-08T22:30:58.113Z,1.90
2023-03-08T22:33:25.773Z,2.78
2023-03-08T22:35:54.922Z,2.10
2023-03-08T22:38:22.619Z,1.95
2023-03-08T22:40:50.326Z,1.60
2023-03-08T22:43:18.067Z,1.98
2023-03-08T22:45:45.772Z,1.90
2023-03-08T22:48:13.398Z,1.80
2023-03-08T22:50:41.144Z,2.25
2023-03-08T22:53:10.160Z,2.10
2023-03-08T23:02:49.909Z,2.40
2023-03-08T23:05:19.821Z,2.08
2023-03-08T23:07:48.009Z,2.70
2023-03-08T23:10:17.746Z,2.05
2023-03-08T23:12:45.401Z,2.13
2023-03-08T23:15:13.365Z,2.40
2023-03-08T23:17:44.805Z,1.95
2023-03-08T23:20:13.485Z,2.10
2023-03-08T23:22:43.310Z,2.28
2023-03-08T23:25:12.649Z,1.73
2023-03-08T23:27:40.459Z,1.80
2023-03-08T23:30:09.412Z,1.98
2023-03-08T23:32:37.174Z,2.15
2023-03-08T23:35:07.211Z,2.05
2023-03-08T23:37:34.896Z,1.92
2023-03-08T23:40:04.208Z,1.98
2023-03-08T23:42:34.550Z,1.80
2023-03-08T23:45:02.180Z,1.80
2023-03-08T23:47:32.982Z,1.95
2023-03-08T23:50:00.703Z,1.60
2023-03-08T23:52:29.754Z,1.98
2023-03-08T23:55:00.119Z,1.80
2023-03-08T23:57:27.864Z,1.70
2023-03-08T23:59:55.540Z,1.83
